createdAt,value
2019-03-12T00:00:37.097Z,40.20
2019-03-12T00:03:05.576Z,40.20
2019-03-12T00:05:34.052Z,40.20
2019-03-12T00:08:02.782Z,40.20
2019-03-12T00:10:31.629Z,40.20
2019-03-12T00:13:00.105Z,40.30
2019-03-12T00:15:28.816Z,40.30
2019-03-12T00:17:57.328Z,40.20
2019-03-12T00:20:25.820Z,40.30
2019-03-12T00:22:54.388Z,40.20
2019-03-12T00:25:23.051Z,40.10
2019-03-12T00:27:51.503Z,40.10
2019-03-12T00:30:20.012Z,40.30
2019-03-12T00:32:48.528Z,40.10
2019-03-12T00:35:17.469Z,40.10
2019-03-12T00:37:45.970Z,40.00
2019-03-12T00:40:14.438Z,40.30
2019-03-12T00:42:43.003Z,40.10
2019-03-12T00:45:12.344Z,40.10
2019-03-12T00:47:40.818Z,40.00
2019-03-12T00:50:10.861Z,40.90
2019-03-12T00:52:39.492Z,40.20
2019-03-12T00:55:08.835Z,40.20
2019-03-12T00:57:37.319Z,40.20
2019-03-12T01:00:15.268Z,40.10
2019-03-12T01:02:43.741Z,40.10
2019-03-12T01:05:12.263Z,40.30
2019-03-12T01:07:40.740Z,40.80
2019-03-12T01:10:14.147Z,40.20
2019-03-12T01:12:42.616Z,40.20
2019-03-12T01:15:12.772Z,40.20
2019-03-12T01:17:41.360Z,40.20
2019-03-12T01:20:14.010Z,40.20
2019-03-12T01:22:42.463Z,40.20
2019-03-12T01:25:12.782Z,40.20
2019-03-12T01:27:41.309Z,40.10
2019-03-12T01:30:18.830Z,40.10
2019-03-12T01:32:47.294Z,40.00
2019-03-12T01:35:15.792Z,40.00
2019-03-12T01:37:44.286Z,40.00
2019-03-12T01:40:14.096Z,40.10
2019-03-12T01:42:42.568Z,39.90
2019-03-12T01:45:14.479Z,40.00
2019-03-12T01:47:42.929Z,40.10
2019-03-12T01:50:13.176Z,40.00
2019-03-12T01:52:41.674Z,40.00
2019-03-12T01:55:12.286Z,40.00
2019-03-12T01:57:40.755Z,40.00
2019-03-12T02:00:18.134Z,40.00
2019-03-12T02:02:46.742Z,40.00
2019-03-12T02:05:15.251Z,40.00
2019-03-12T02:07:44.189Z,39.80
2019-03-12T02:10:14.006Z,39.70
2019-03-12T02:12:42.477Z,38.80
2019-03-12T02:15:17.614Z,39.10
2019-03-12T02:17:46.074Z,39.20
2019-03-12T02:20:16.128Z,39.20
2019-03-12T02:22:44.593Z,39.30
2019-03-12T02:25:17.460Z,39.30
2019-03-12T02:27:45.938Z,39.40
2019-03-12T02:30:21.187Z,39.40
2019-03-12T02:32:49.710Z,39.40
2019-03-12T02:35:18.195Z,39.40
2019-03-12T02:37:46.706Z,39.40
2019-03-12T02:40:16.031Z,39.30
2019-03-12T02:42:44.620Z,39.40
2019-03-12T02:45:15.579Z,39.40
2019-03-12T02:47:44.155Z,39.40
2019-03-12T02:50:16.125Z,39.40
2019-03-12T02:52:45.272Z,39.30
2019-03-12T02:55:13.815Z,39.30
2019-03-12T02:57:42.279Z,39.30
2019-03-12T03:00:17.619Z,39.30
2019-03-12T03:02:46.074Z,39.40
2019-03-12T03:05:15.854Z,39.30
2019-03-12T03:07:55.100Z,39.30
2019-03-12T03:10:23.687Z,39.20
2019-03-12T03:12:52.151Z,39.20
2019-03-12T03:15:38.974Z,39.20
2019-03-12T03:18:07.446Z,39.00
2019-03-12T03:20:35.959Z,37.90
2019-03-12T03:23:04.515Z,37.70
2019-03-12T03:25:33.116Z,37.70
2019-03-12T03:28:01.749Z,37.80
2019-03-12T03:30:30.334Z,37.80
2019-03-12T03:32:58.789Z,37.90
2019-03-12T03:35:27.237Z,37.90
2019-03-12T03:37:55.744Z,37.90
2019-03-12T03:40:24.320Z,37.90
2019-03-12T03:42:52.781Z,37.90
2019-03-12T03:45:21.303Z,37.90
2019-03-12T03:47:49.808Z,37.90
2019-03-12T03:50:18.900Z,37.90
2019-03-12T03:52:47.419Z,38.00
2019-03-12T03:55:20.266Z,38.00
2019-03-12T03:57:48.926Z,37.90
2019-03-12T04:00:19.553Z,38.00
2019-03-12T04:02:48.005Z,37.90
2019-03-12T04:05:16.605Z,38.00
2019-03-12T04:07:45.191Z,37.90
2019-03-12T04:10:13.734Z,37.90
2019-03-12T04:12:42.250Z,38.00
2019-03-12T04:15:15.467Z,38.00
2019-03-12T04:17:44.028Z,38.00
2019-03-12T04:20:14.822Z,38.10
2019-03-12T04:22:43.288Z,38.20
2019-03-12T04:25:11.784Z,38.20
2019-03-12T04:27:40.240Z,38.20
2019-03-12T04:30:14.551Z,38.30
2019-03-12T04:32:43.003Z,38.40
2019-03-12T04:35:23.930Z,38.40
2019-03-12T04:37:52.386Z,38.40
2019-03-12T04:40:20.844Z,38.40
2019-03-12T04:42:49.449Z,38.40
2019-03-12T04:45:17.909Z,38.50
2019-03-12T04:47:46.447Z,38.60
2019-03-12T04:50:15.497Z,38.80
2019-03-12T04:52:43.958Z,38.80
2019-03-12T04:55:14.919Z,38.80
2019-03-12T04:57:43.590Z,38.80
2019-03-12T05:00:14.691Z,38.80
2019-03-12T05:02:43.258Z,38.80
2019-03-12T05:05:11.718Z,38.90
2019-03-12T05:07:40.207Z,38.90
2019-03-12T05:10:14.014Z,38.80
2019-03-12T05:12:42.531Z,38.70
2019-03-12T05:15:15.413Z,38.80
2019-03-12T05:17:44.821Z,38.70
2019-03-12T05:20:14.979Z,38.70
2019-03-12T05:22:43.547Z,38.70
2019-03-12T05:25:13.902Z,38.70
2019-03-12T05:27:42.490Z,38.70
2019-03-12T05:30:16.495Z,38.70
2019-03-12T05:32:44.942Z,38.70
2019-03-12T05:35:13.498Z,38.70
2019-03-12T05:37:42.028Z,39.30
2019-03-12T05:40:15.446Z,38.70
2019-03-12T05:42:43.926Z,38.70
2019-03-12T05:45:17.535Z,38.80
2019-03-12T05:47:46.151Z,38.70
2019-03-12T05:50:15.807Z,38.70
2019-03-12T05:52:44.271Z,38.60
2019-03-12T05:55:15.041Z,38.70
2019-03-12T05:57:43.556Z,38.70
2019-03-12T06:00:17.695Z,38.70
2019-03-12T06:02:46.141Z,38.70
2019-03-12T06:05:14.650Z,38.60
2019-03-12T06:08:02.935Z,38.50
2019-03-12T06:10:31.449Z,39.20
2019-03-12T06:12:59.975Z,38.70
2019-03-12T06:15:28.484Z,38.60
2019-03-12T06:17:57.057Z,38.60
2019-03-12T06:20:25.577Z,38.50
2019-03-12T06:22:54.041Z,38.50
2019-03-12T06:25:22.554Z,38.50
2019-03-12T06:27:51.103Z,38.50
2019-03-12T06:30:20.593Z,38.50
2019-03-12T06:32:50.822Z,38.50
2019-03-12T06:35:23.732Z,38.50
2019-03-12T06:37:59.472Z,38.50
2019-03-12T06:40:35.518Z,38.50
2019-03-12T06:43:08.386Z,38.50
2019-03-12T06:45:47.757Z,38.50
2019-03-12T06:48:23.828Z,38.50
2019-03-12T06:50:59.668Z,38.50
2019-03-12T06:53:29.895Z,38.50
2019-03-12T06:56:12.088Z,38.50
2019-03-12T06:58:42.231Z,38.60
2019-03-12T07:01:12.366Z,38.60
2019-03-12T07:03:42.495Z,38.60
2019-03-12T07:06:12.615Z,38.60
2019-03-12T07:08:51.591Z,38.60
2019-03-12T07:11:38.223Z,38.70
2019-03-12T07:14:14.433Z,38.70
2019-03-12T07:16:44.611Z,38.80
2019-03-12T07:19:32.520Z,38.80
2019-03-12T07:22:05.539Z,38.80
2019-03-12T07:24:52.135Z,38.80
2019-03-12T07:27:28.254Z,38.80
2019-03-12T07:30:04.331Z,38.80
2019-03-12T07:32:37.271Z,38.90
2019-03-12T07:35:07.539Z,38.80
2019-03-12T07:37:52.902Z,38.80
2019-03-12T07:40:23.028Z,38.90
2019-03-12T07:42:53.146Z,38.80
2019-03-12T07:45:26.066Z,38.90
2019-03-12T07:47:58.660Z,38.90
2019-03-12T07:50:31.483Z,38.90
2019-03-12T07:53:19.377Z,38.90
2019-03-12T07:55:55.221Z,38.90
2019-03-12T07:58:37.196Z,38.90
2019-03-12T08:01:19.300Z,39.00
2019-03-12T08:04:05.690Z,39.00
2019-03-12T08:06:35.826Z,39.00
2019-03-12T08:09:24.519Z,39.10
2019-03-12T08:14:49.248Z,38.90
2019-03-12T08:17:19.475Z,38.90
2019-03-12T08:19:55.647Z,38.90
2019-03-12T08:22:41.707Z,38.80
2019-03-12T08:25:29.937Z,38.80
2019-03-12T08:28:06.143Z,38.80
2019-03-12T08:30:42.177Z,38.80
2019-03-12T08:33:28.368Z,38.90
2019-03-12T08:36:01.364Z,38.80
2019-03-12T08:38:34.135Z,38.80
2019-03-12T08:41:04.235Z,38.80
2019-03-12T08:43:37.044Z,38.70
2019-03-12T08:46:23.985Z,38.70
2019-03-12T08:48:57.379Z,38.80
2019-03-12T08:51:36.442Z,38.80
2019-03-12T08:54:12.373Z,38.80
2019-03-12T08:57:00.606Z,38.80
2019-03-12T08:59:30.767Z,38.80
2019-03-12T09:02:02.511Z,38.80
2019-03-12T09:04:32.655Z,38.70
2019-03-12T09:07:05.098Z,38.60
2019-03-12T09:09:37.522Z,38.60
2019-03-12T09:12:19.545Z,38.70
2019-03-12T09:14:52.473Z,38.70
2019-03-12T09:17:28.583Z,38.60
2019-03-12T09:20:07.307Z,38.60
2019-03-12T09:22:37.416Z,38.70
2019-03-12T09:25:11.693Z,38.70
2019-03-12T09:27:55.982Z,38.70
2019-03-12T09:30:31.842Z,38.60
2019-03-12T09:33:01.945Z,38.60
2019-03-12T09:35:37.955Z,38.60
2019-03-12T09:38:10.940Z,38.60
2019-03-12T09:40:57.247Z,38.70
2019-03-12T09:43:27.432Z,38.70
2019-03-12T09:46:06.687Z,38.70
2019-03-12T09:48:39.713Z,38.70
2019-03-12T09:51:18.805Z,38.80
2019-03-12T09:53:57.681Z,38.70
2019-03-12T09:56:27.836Z,38.80
2019-03-12T09:59:14.645Z,38.70
2019-03-12T10:01:51.035Z,38.70
2019-03-12T10:04:29.905Z,38.70
2019-03-12T10:07:00.118Z,38.80
2019-03-12T10:09:39.090Z,38.70
2019-03-12T10:12:09.212Z,38.60
2019-03-12T10:14:55.807Z,38.60
2019-03-12T10:17:34.920Z,38.60
2019-03-12T10:20:21.878Z,38.50
2019-03-12T10:23:01.214Z,38.50
2019-03-12T10:25:31.334Z,38.60
2019-03-12T10:30:49.543Z,38.40
2019-03-12T10:33:22.631Z,38.40
2019-03-12T10:35:53.307Z,38.50
2019-03-12T10:39:03.935Z,38.70
2019-03-12T10:41:42.690Z,38.60
2019-03-12T10:44:15.469Z,38.50
2019-03-12T10:46:45.628Z,38.30
2019-03-12T10:49:14.110Z,38.20
2019-03-12T10:51:42.557Z,38.10
2019-03-12T10:54:11.058Z,38.00
2019-03-12T10:56:39.569Z,38.00
2019-03-12T10:59:08.031Z,37.80
2019-03-12T11:01:36.537Z,37.70
2019-03-12T11:04:04.997Z,37.70
2019-03-12T11:06:33.497Z,37.50
2019-03-12T11:09:01.951Z,37.50
2019-03-12T11:11:30.515Z,37.40
2019-03-12T11:13:58.970Z,37.40
2019-03-12T11:16:27.434Z,37.40
2019-03-12T11:18:55.929Z,37.10
2019-03-12T11:21:27.476Z,37.10
2019-03-12T11:23:56.001Z,37.10
2019-03-12T11:26:24.465Z,37.00
2019-03-12T11:28:52.969Z,36.90
2019-03-12T11:31:21.491Z,37.00
2019-03-12T11:33:50.078Z,36.80
2019-03-12T11:36:19.017Z,36.80
2019-03-12T11:38:47.473Z,39.30
2019-03-12T11:41:16.481Z,36.80
2019-03-12T11:43:45.014Z,36.30
2019-03-12T11:46:13.519Z,34.20
2019-03-12T11:48:42.013Z,33.50
2019-03-12T11:51:10.575Z,32.20
2019-03-12T11:53:39.096Z,31.30
2019-03-12T11:56:07.630Z,31.50
2019-03-12T11:58:36.491Z,31.50
2019-03-12T12:01:07.159Z,31.40
2019-03-12T12:03:49.430Z,31.20
2019-03-12T12:06:19.881Z,32.10
2019-03-12T12:08:48.395Z,30.20
2019-03-12T12:11:16.962Z,32.20
2019-03-12T12:13:48.373Z,33.00
2019-03-12T12:16:17.125Z,33.10
2019-03-12T12:18:45.545Z,33.50
2019-03-12T12:21:14.072Z,34.00
2019-03-12T12:23:42.535Z,34.50
2019-03-12T12:26:11.054Z,34.90
2019-03-12T12:28:39.584Z,35.30
2019-03-12T12:31:08.015Z,36.40
2019-03-12T12:33:36.462Z,35.80
2019-03-12T12:36:04.966Z,35.90
2019-03-12T12:38:33.432Z,36.00
2019-03-12T12:41:01.933Z,37.20
2019-03-12T12:43:30.396Z,37.00
2019-03-12T12:45:58.849Z,37.70
2019-03-12T12:48:27.369Z,37.10
2019-03-12T12:51:03.171Z,37.20
2019-03-12T12:53:26.077Z,37.30
2019-03-12T12:55:54.534Z,37.70
2019-03-12T12:58:23.462Z,37.30
2019-03-12T13:00:51.982Z,37.30
2019-03-12T13:03:20.489Z,37.60
2019-03-12T13:05:48.953Z,38.00
2019-03-12T13:08:17.454Z,38.40
2019-03-12T13:10:45.907Z,38.90
2019-03-12T13:13:14.471Z,39.00
2019-03-12T13:15:42.977Z,38.70
2019-03-12T13:18:11.402Z,39.10
2019-03-12T13:20:42.966Z,40.30
2019-03-12T13:23:11.463Z,41.00
2019-03-12T13:25:39.982Z,41.60
2019-03-12T13:28:08.470Z,42.40
2019-03-12T13:30:36.978Z,42.90
2019-03-12T13:33:05.497Z,42.50
2019-03-12T13:35:34.317Z,42.40
2019-03-12T13:38:02.807Z,42.80
2019-03-12T13:40:31.633Z,42.60
2019-03-12T13:43:00.194Z,42.70
2019-03-12T13:45:32.475Z,44.20
2019-03-12T13:48:01.019Z,45.60
2019-03-12T13:50:29.548Z,45.40
2019-03-12T13:52:58.136Z,45.40
2019-03-12T13:55:26.862Z,45.50
2019-03-12T13:57:55.391Z,45.40
2019-03-12T14:00:25.155Z,45.50
2019-03-12T14:02:54.092Z,45.40
2019-03-12T14:05:22.576Z,45.30
2019-03-12T14:07:51.034Z,45.50
2019-03-12T14:10:24.564Z,45.20
2019-03-12T14:12:53.888Z,45.20
2019-03-12T14:15:30.639Z,44.90
2019-03-12T14:17:59.116Z,44.70
2019-03-12T14:20:47.603Z,44.20
2019-03-12T14:23:19.325Z,41.30
2019-03-12T14:25:47.853Z,40.50
2019-03-12T14:28:16.433Z,39.10
2019-03-12T14:30:44.954Z,38.50
2019-03-12T14:33:13.820Z,39.20
2019-03-12T14:35:51.347Z,37.80
2019-03-12T14:38:12.401Z,37.80
2019-03-12T14:40:40.908Z,36.80
2019-03-12T14:43:09.859Z,36.40
2019-03-12T14:45:40.025Z,36.00
2019-03-12T14:48:28.303Z,35.70
2019-03-12T14:50:56.788Z,35.50
2019-03-12T14:53:25.252Z,33.30
2019-03-12T14:55:53.755Z,34.00
2019-03-12T14:58:22.311Z,34.30
2019-03-12T15:00:51.231Z,34.00
2019-03-12T15:03:19.694Z,32.00
2019-03-12T15:05:48.373Z,32.60
2019-03-12T15:08:16.838Z,35.30
2019-03-12T15:10:45.278Z,35.30
2019-03-12T15:13:13.827Z,36.20
2019-03-12T15:15:42.502Z,36.10
2019-03-12T15:18:11.216Z,36.40
2019-03-12T15:20:39.673Z,36.70
2019-03-12T15:23:08.147Z,36.80
2019-03-12T15:25:36.921Z,36.80
2019-03-12T15:28:05.355Z,36.90
2019-03-12T15:30:33.806Z,37.30
2019-03-12T15:33:02.312Z,37.60
2019-03-12T15:35:31.903Z,37.70
2019-03-12T15:38:00.814Z,37.90
2019-03-12T15:40:29.335Z,38.10
2019-03-12T15:42:57.853Z,38.20
2019-03-12T15:45:26.309Z,38.30
2019-03-12T15:47:54.847Z,38.40
2019-03-12T15:50:23.287Z,38.60
2019-03-12T15:52:51.743Z,38.20
2019-03-12T15:55:20.252Z,38.80
2019-03-12T15:57:49.059Z,38.80
2019-03-12T16:00:22.210Z,38.90
2019-03-12T16:02:53.949Z,39.00
2019-03-12T16:05:22.441Z,39.20
2019-03-12T16:07:52.846Z,39.20
2019-03-12T16:10:37.652Z,39.20
2019-03-12T16:13:07.822Z,39.30
2019-03-12T16:15:37.837Z,39.40
2019-03-12T16:18:06.792Z,39.60
2019-03-12T16:20:35.318Z,40.10
2019-03-12T16:23:03.913Z,40.00
2019-03-12T16:25:32.889Z,39.80
2019-03-12T16:28:01.714Z,39.70
2019-03-12T16:30:30.266Z,39.60
2019-03-12T16:32:58.739Z,39.50
2019-03-12T16:35:27.522Z,40.50
2019-03-12T16:37:56.279Z,40.40
2019-03-12T16:40:25.060Z,41.10
2019-03-12T16:42:53.812Z,40.50
2019-03-12T16:45:22.551Z,40.70
2019-03-12T16:47:50.994Z,40.70
2019-03-12T16:50:19.568Z,41.00
2019-03-12T16:52:48.107Z,41.20
2019-03-12T16:55:17.996Z,41.30
2019-03-12T16:57:46.683Z,41.50
2019-03-12T17:00:17.374Z,41.60
2019-03-12T17:02:45.916Z,41.90
2019-03-12T17:05:14.562Z,43.00
2019-03-12T17:07:43.317Z,42.30
2019-03-12T17:10:19.888Z,42.40
2019-03-12T17:12:48.729Z,44.10
2019-03-12T17:15:24.073Z,43.40
2019-03-12T17:17:52.950Z,42.30
2019-03-12T17:20:21.956Z,41.60
2019-03-12T17:22:50.730Z,42.60
2019-03-12T17:25:19.508Z,42.60
2019-03-12T17:27:51.452Z,43.10
2019-03-12T17:30:26.829Z,43.30
2019-03-12T17:32:55.640Z,43.50
2019-03-12T17:35:30.610Z,44.00
2019-03-12T17:37:59.339Z,43.70
2019-03-12T17:40:28.324Z,43.50
2019-03-12T17:42:57.023Z,44.50
2019-03-12T17:45:26.295Z,44.10
2019-03-12T17:47:54.982Z,43.50
2019-03-12T17:50:23.684Z,44.00
2019-03-12T17:52:52.384Z,44.20
2019-03-12T17:55:21.108Z,43.30
2019-03-12T17:57:50.954Z,43.80
2019-03-12T18:00:23.021Z,43.60
2019-03-12T18:02:54.717Z,43.70
2019-03-12T18:05:23.391Z,43.40
2019-03-12T18:07:52.111Z,43.70
2019-03-12T18:10:20.902Z,43.00
2019-03-12T18:12:49.633Z,43.00
2019-03-12T18:15:19.975Z,43.10
2019-03-12T18:17:49.070Z,43.10
2019-03-12T18:20:26.140Z,42.80
2019-03-12T18:22:54.899Z,42.80
2019-03-12T18:25:32.333Z,43.10
2019-03-12T18:28:01.297Z,42.70
2019-03-12T18:30:30.315Z,42.50
2019-03-12T18:32:59.304Z,42.60
2019-03-12T18:35:28.294Z,42.50
2019-03-12T18:37:57.288Z,42.30
2019-03-12T18:40:29.669Z,42.10
2019-03-12T18:42:58.674Z,42.60
2019-03-12T18:45:33.185Z,42.30
2019-03-12T18:48:02.172Z,42.20
2019-03-12T18:50:31.166Z,42.10
2019-03-12T18:53:01.015Z,41.90
2019-03-12T18:55:38.639Z,41.90
2019-03-12T18:58:08.621Z,41.80
2019-03-12T19:00:39.728Z,41.80
2019-03-12T19:03:08.721Z,41.70
2019-03-12T19:05:37.746Z,41.60
2019-03-12T19:08:06.735Z,41.60
2019-03-12T19:10:36.924Z,41.50
2019-03-12T19:13:05.490Z,41.50
2019-03-12T19:15:34.305Z,41.50
2019-03-12T19:18:03.643Z,41.40
2019-03-12T19:20:33.221Z,41.30
2019-03-12T19:23:02.927Z,41.30
2019-03-12T19:25:37.974Z,41.30
2019-03-12T19:28:05.758Z,41.20
2019-03-12T19:30:35.112Z,41.00
2019-03-12T19:33:08.933Z,41.20
2019-03-12T19:35:37.933Z,41.10
2019-03-12T19:38:07.387Z,40.90
2019-03-12T19:40:44.813Z,41.10
2019-03-12T19:43:13.958Z,41.20
2019-03-12T19:45:43.129Z,41.20
2019-03-12T19:48:12.417Z,41.40
2019-03-12T19:50:41.725Z,41.50
2019-03-12T19:53:11.020Z,41.60
2019-03-12T19:55:54.422Z,42.20
2019-03-12T19:58:28.596Z,41.90
2019-03-12T20:00:57.961Z,41.80
2019-03-12T20:03:27.269Z,41.80
2019-03-12T20:05:56.288Z,41.90
2019-03-12T20:08:25.253Z,41.90
2019-03-12T20:11:09.305Z,41.80
2019-03-12T20:13:57.679Z,41.90
2019-03-12T20:16:44.788Z,42.00
2019-03-12T20:19:20.207Z,42.10
2019-03-12T20:22:26.300Z,41.80
2019-03-12T20:25:19.361Z,41.90
2019-03-12T20:28:24.984Z,41.70
2019-03-12T20:31:09.685Z,41.80
2019-03-12T20:33:59.016Z,41.90
2019-03-12T20:37:04.753Z,42.20
2019-03-12T20:40:01.300Z,42.40
2019-03-12T20:43:01.937Z,43.30
2019-03-12T20:45:54.897Z,42.90
2019-03-12T20:49:11.139Z,42.90
2019-03-12T20:51:57.715Z,43.10
2019-03-12T20:54:55.568Z,43.20
2019-03-12T20:58:01.122Z,43.10
2019-03-12T21:01:06.361Z,43.20
2019-03-12T21:03:54.687Z,42.90
2019-03-12T21:06:46.130Z,43.00
2019-03-12T21:09:53.522Z,43.20
2019-03-12T21:12:54.161Z,43.00
2019-03-12T21:15:46.833Z,42.80
2019-03-12T21:18:52.046Z,42.60
2019-03-12T21:21:48.742Z,42.60
2019-03-12T21:24:23.704Z,42.40
2019-03-12T21:27:15.247Z,42.60
2019-03-12T21:29:43.605Z,42.50
2019-03-12T21:32:13.511Z,42.60
2019-03-12T21:34:42.837Z,42.80
2019-03-12T21:37:11.525Z,42.80
2019-03-12T21:39:40.203Z,42.90
2019-03-12T21:42:08.890Z,42.90
2019-03-12T21:44:37.454Z,42.80
2019-03-12T21:47:06.038Z,43.00
2019-03-12T21:49:34.962Z,43.00
2019-03-12T21:52:03.942Z,42.90
2019-03-12T21:54:32.630Z,43.00
2019-03-12T21:57:02.287Z,43.00
2019-03-12T21:59:30.904Z,43.00
2019-03-12T22:01:59.993Z,43.10
2019-03-12T22:04:28.581Z,43.10
2019-03-12T22:06:57.289Z,42.80
2019-03-12T22:09:25.863Z,41.40
2019-03-12T22:11:54.540Z,41.30
2019-03-12T22:14:23.330Z,41.40
2019-03-12T22:16:55.140Z,41.10
2019-03-12T22:19:23.486Z,41.20
2019-03-12T22:21:57.067Z,41.70
2019-03-12T22:24:25.525Z,41.20
2019-03-12T22:26:54.222Z,41.30
2019-03-12T22:29:22.830Z,41.40
2019-03-12T22:31:51.432Z,41.40
2019-03-12T22:34:20.073Z,41.40
2019-03-12T22:36:51.632Z,41.50
2019-03-12T22:39:20.343Z,41.60
2019-03-12T22:41:49.003Z,41.60
2019-03-12T22:44:18.023Z,41.60
2019-03-12T22:46:46.709Z,41.70
2019-03-12T22:49:15.160Z,41.80
2019-03-12T22:51:44.082Z,41.90
2019-03-12T22:54:12.769Z,41.80
2019-03-12T22:56:41.738Z,41.80
2019-03-12T22:59:10.424Z,41.70
2019-03-12T23:01:39.003Z,41.60
2019-03-12T23:04:11.030Z,41.40
2019-03-12T23:06:46.035Z,41.00
2019-03-12T23:09:15.046Z,40.90
2019-03-12T23:11:44.001Z,41.10
2019-03-12T23:14:13.017Z,41.20
2019-03-12T23:16:42.003Z,41.20
2019-03-12T23:19:10.682Z,41.30
2019-03-12T23:21:39.662Z,41.30
2019-03-12T23:24:08.679Z,41.20
2019-03-12T23:26:57.335Z,41.20
2019-03-12T23:29:26.024Z,41.50
2019-03-12T23:31:55.012Z,41.20
2019-03-12T23:34:23.999Z,41.20
2019-03-12T23:36:52.690Z,41.20
2019-03-12T23:39:21.433Z,41.20
2019-03-12T23:41:50.675Z,41.20
2019-03-12T23:44:19.663Z,41.20
2019-03-12T23:46:48.356Z,41.20
2019-03-12T23:49:17.045Z,41.20
2019-03-12T23:51:45.725Z,41.20
2019-03-12T23:54:14.414Z,41.20
2019-03-12T23:56:43.810Z,41.20
2019-03-12T23:59:12.707Z,41.10
